createdAt,value
2023-06-03T00:02:18.065Z,43192.19
2023-06-03T00:04:45.375Z,43038.47
2023-06-03T00:07:12.838Z,42926.69
2023-06-03T00:09:40.403Z,42870.81
2023-06-03T00:12:08.068Z,42902.75
2023-06-03T00:14:35.411Z,42902.75
2023-06-03T00:17:06.133Z,42826.91
2023-06-03T00:19:33.457Z,42633.28
2023-06-03T00:22:01.405Z,42573.41
2023-06-03T00:24:29.193Z,42409.75
2023-06-03T00:26:56.561Z,42371.84
2023-06-03T00:29:23.748Z,42609.34
2023-06-03T00:31:51.863Z,42455.66
2023-06-03T00:34:21.491Z,42581.41
2023-06-03T00:36:56.069Z,42751.06
2023-06-03T00:39:23.983Z,42469.63
2023-06-03T00:41:51.268Z,42222.16
2023-06-03T00:44:18.535Z,42272.06
2023-06-03T00:46:46.018Z,42268.06
2023-06-03T00:49:13.512Z,42248.09
2023-06-03T00:51:43.721Z,42278.03
2023-06-03T00:54:11.348Z,42134.34
2023-06-03T00:56:43.855Z,42084.47
2023-06-03T00:59:18.064Z,42106.41
2023-06-03T01:01:46.140Z,42415.75
2023-06-03T01:04:18.013Z,42166.28
2023-06-03T01:06:53.960Z,42144.34
2023-06-03T01:09:36.455Z,41657.44
2023-06-03T01:12:05.877Z,41984.69
2023-06-03T01:14:46.677Z,42018.59
2023-06-03T01:17:17.584Z,42337.91
2023-06-03T01:19:53.789Z,42248.09
2023-06-03T01:22:22.399Z,42054.53
2023-06-03T01:24:51.528Z,42048.53
2023-06-03T01:27:19.482Z,41769.19
2023-06-03T01:29:51.854Z,41667.41
2023-06-03T01:32:19.413Z,41441.94
2023-06-03T01:34:47.342Z,41529.75
2023-06-03T01:37:15.002Z,41817.06
2023-06-03T01:39:44.215Z,41781.16
2023-06-03T01:42:12.980Z,41619.53
2023-06-03T01:44:44.123Z,41501.81
2023-06-03T01:47:12.918Z,41583.63
2023-06-03T01:49:41.498Z,41447.94
2023-06-03T01:52:08.671Z,41479.84
2023-06-03T01:54:36.782Z,41661.44
2023-06-03T01:57:06.602Z,41541.72
2023-06-03T01:59:36.528Z,41364.13
2023-06-03T02:02:06.646Z,41362.13
2023-06-03T02:04:36.463Z,41226.47
2023-06-03T02:07:04.094Z,41110.75
2023-06-03T02:09:37.730Z,40953.16
2023-06-03T02:12:05.127Z,41148.66
2023-06-03T02:14:35.865Z,40857.41
2023-06-03T02:17:03.535Z,40863.38
2023-06-03T02:19:31.202Z,40911.28
2023-06-03T02:22:00.689Z,40855.41
2023-06-03T02:24:30.017Z,40895.31
2023-06-03T02:27:02.071Z,40977.09
2023-06-03T02:29:30.829Z,40975.09
2023-06-03T02:32:01.134Z,40969.13
2023-06-03T02:34:28.898Z,40935.22
2023-06-03T02:36:56.266Z,40821.50
2023-06-03T02:39:28.597Z,41001.03
2023-06-03T02:41:56.324Z,40929.22
2023-06-03T02:44:25.068Z,40937.19
2023-06-03T02:46:54.843Z,40943.19
2023-06-03T02:49:22.310Z,40917.25
2023-06-03T02:51:50.012Z,40787.59
2023-06-03T02:54:19.757Z,40799.56
2023-06-03T02:56:49.293Z,40699.81
2023-06-03T02:59:18.978Z,40725.75
2023-06-03T03:01:46.436Z,40689.84
2023-06-03T03:04:13.886Z,40803.53
2023-06-03T03:06:41.715Z,40731.72
2023-06-03T03:09:09.456Z,40809.53
2023-06-03T03:11:42.068Z,40905.28
2023-06-03T03:14:11.864Z,41040.94
2023-06-03T03:16:40.674Z,41005.03
2023-06-03T03:19:09.820Z,41066.88
2023-06-03T03:21:37.751Z,41048.91
2023-06-03T03:24:15.188Z,41156.66
2023-06-03T03:26:45.378Z,41280.34
2023-06-03T03:29:12.543Z,41328.22
2023-06-03T03:31:40.093Z,41392.06
2023-06-03T03:34:10.638Z,41892.91
2023-06-03T03:36:38.116Z,42415.75
2023-06-03T03:39:11.754Z,42607.34
2023-06-03T03:41:48.237Z,42948.66
2023-06-03T03:44:15.979Z,42942.66
2023-06-03T03:47:00.735Z,42483.59
2023-06-03T03:49:33.094Z,42777.00
2023-06-03T03:52:06.520Z,43174.22
2023-06-03T03:54:37.763Z,43198.19
2023-06-03T03:57:13.793Z,43457.69
2023-06-03T03:59:50.922Z,43469.69
2023-06-03T04:02:21.858Z,43218.16
2023-06-03T04:04:49.381Z,43182.22
2023-06-03T04:07:19.568Z,42890.78
2023-06-03T04:09:51.205Z,43024.50
2023-06-03T04:12:25.583Z,43409.78
2023-06-03T04:14:55.034Z,43377.84
2023-06-03T04:17:26.820Z,43449.72
2023-06-03T04:19:56.742Z,43290.00
2023-06-03T04:22:27.927Z,43100.38
2023-06-03T04:25:02.761Z,43102.38
2023-06-03T04:27:48.552Z,43174.22
2023-06-03T04:30:18.056Z,43162.25
2023-06-03T04:32:45.732Z,43012.53
2023-06-03T04:35:13.124Z,43096.38
2023-06-03T04:37:46.309Z,42942.66
2023-06-03T04:40:17.060Z,43218.16
2023-06-03T04:42:47.470Z,45035.22
2023-06-03T04:45:16.119Z,44713.66
2023-06-03T04:47:46.038Z,43719.25
2023-06-03T04:50:21.093Z,42272.06
2023-06-03T04:52:49.284Z,42357.88
2023-06-03T04:55:20.128Z,42319.94
2023-06-03T04:57:51.918Z,42284.03
2023-06-03T05:00:20.540Z,42286.03
2023-06-03T05:03:01.022Z,42713.13
2023-06-03T05:05:33.792Z,43329.94
2023-06-03T05:08:06.033Z,43928.88
2023-06-03T05:10:36.592Z,44116.56
2023-06-03T05:13:08.038Z,44699.69
2023-06-03T05:15:36.358Z,45978.09
2023-06-03T05:18:04.910Z,47918.59
2023-06-03T05:20:33.290Z,49796.22
2023-06-03T05:23:00.581Z,50280.28
2023-06-03T05:25:30.697Z,50776.44
2023-06-03T05:28:04.416Z,51658.88
2023-06-03T05:30:38.049Z,52381.41
2023-06-03T05:33:08.953Z,53654.72
2023-06-03T05:35:42.258Z,54021.16
2023-06-03T05:38:10.176Z,56391.13
2023-06-03T05:40:37.971Z,56647.66
2023-06-03T05:43:08.794Z,56134.63
2023-06-03T05:45:38.537Z,56391.13
2023-06-03T05:48:08.407Z,56134.63
2023-06-03T05:50:48.302Z,56904.22
2023-06-03T05:53:19.202Z,57417.38
2023-06-03T05:55:46.521Z,57673.97
2023-06-03T05:58:16.199Z,58700.59
2023-06-03T06:00:43.447Z,59214.00
2023-06-03T06:03:11.109Z,59470.75
2023-06-03T06:05:40.703Z,59984.28
2023-06-03T06:08:08.165Z,60754.75
2023-06-03T06:10:37.908Z,61782.28
2023-06-03T06:13:05.894Z,62296.19
2023-06-03T06:15:36.261Z,63324.19
2023-06-03T06:18:04.984Z,64095.41
2023-06-03T06:20:32.383Z,64866.81
2023-06-03T06:22:59.829Z,65381.16
2023-06-03T06:25:27.142Z,65638.38
2023-06-03T06:27:57.478Z,65895.59
2023-06-03T06:30:24.897Z,66410.09
2023-06-03T06:32:53.501Z,66667.38
2023-06-03T06:35:31.350Z,66667.38
2023-06-03T06:37:59.773Z,65895.59
2023-06-03T06:40:33.953Z,66410.09
2023-06-03T06:43:02.692Z,67439.34
2023-06-03T06:45:42.019Z,67954.09
2023-06-03T06:48:14.309Z,68211.50
2023-06-03T06:50:49.871Z,68468.91
2023-06-03T06:53:20.029Z,68468.91
2023-06-03T06:55:51.127Z,68983.81
2023-06-03T06:58:26.210Z,70013.84
2023-06-03T07:00:53.818Z,70271.41
2023-06-03T07:03:22.860Z,70786.59
2023-06-03T07:05:53.761Z,70271.41
2023-06-03T07:08:23.961Z,70271.41
2023-06-03T07:10:55.690Z,69498.81
2023-06-03T07:13:25.325Z,67696.72
2023-06-03T07:15:53.916Z,66924.69
2023-06-03T07:18:22.970Z,66667.38
2023-06-03T07:20:51.599Z,67182.00
2023-06-03T07:23:26.184Z,67954.09
2023-06-03T07:25:54.534Z,68983.81
2023-06-03T07:28:31.792Z,69498.81
2023-06-03T07:31:10.723Z,70528.97
2023-06-03T07:33:56.897Z,69498.81
2023-06-03T07:36:29.434Z,69756.31
2023-06-03T07:38:59.090Z,70013.84
2023-06-03T07:41:32.438Z,69756.31
2023-06-03T07:44:00.028Z,69756.31
2023-06-03T07:46:38.124Z,69241.31
2023-06-03T07:49:08.686Z,70271.41
2023-06-03T07:51:36.185Z,70528.97
2023-06-03T07:54:04.603Z,70786.59
2023-06-03T07:56:32.034Z,71301.84
2023-06-03T07:59:01.057Z,71559.47
2023-06-03T08:01:28.340Z,72074.84
2023-06-03T08:03:56.248Z,72590.28
2023-06-03T08:06:30.884Z,73105.81
2023-06-03T08:09:00.626Z,73363.59
2023-06-03T08:11:27.946Z,73621.41
2023-06-03T08:13:56.930Z,73879.22
2023-06-03T08:16:24.593Z,74137.09
2023-06-03T08:18:53.310Z,74394.94
2023-06-03T08:21:21.007Z,74910.75
2023-06-03T08:23:53.337Z,75684.56
2023-06-03T08:26:24.307Z,75942.56
2023-06-03T08:28:51.941Z,76716.63
2023-06-03T08:31:21.649Z,76974.69
2023-06-03T08:33:48.908Z,76716.63
2023-06-03T08:36:17.203Z,76716.63
2023-06-03T08:38:46.798Z,76974.69
2023-06-03T08:41:14.336Z,77232.75
2023-06-03T08:43:54.336Z,77232.75
2023-06-03T08:46:42.425Z,76974.69
2023-06-03T08:49:15.693Z,77490.88
2023-06-03T08:51:44.129Z,77748.97
2023-06-03T08:54:14.685Z,77748.97
2023-06-03T08:56:46.448Z,77490.88
2023-06-03T08:59:19.735Z,77490.88
2023-06-03T09:01:48.432Z,77232.75
2023-06-03T09:04:19.335Z,76974.69
2023-06-03T09:06:52.747Z,76716.63
2023-06-03T09:09:21.394Z,76974.69
2023-06-03T09:11:51.897Z,76974.69
2023-06-03T09:14:25.549Z,77232.75
2023-06-03T09:16:54.675Z,76974.69
2023-06-03T09:19:27.470Z,76200.56
2023-06-03T09:22:01.892Z,76458.59
2023-06-03T09:24:29.117Z,79039.88
2023-06-03T09:26:56.503Z,80072.94
2023-06-03T09:29:23.797Z,82139.97
2023-06-03T09:31:53.483Z,81881.53
2023-06-03T09:34:23.262Z,82656.94
2023-06-03T09:36:51.156Z,83173.97
2023-06-03T09:39:33.603Z,82139.97
2023-06-03T09:42:00.774Z,82139.97
2023-06-03T09:44:47.149Z,80589.56
2023-06-03T09:47:14.859Z,79556.34
2023-06-03T09:50:02.990Z,74910.75
2023-06-03T09:52:35.518Z,74137.09
2023-06-03T09:55:05.293Z,72590.28
2023-06-03T09:57:33.181Z,71044.19
2023-06-03T10:00:19.012Z,66152.84
2023-06-03T10:03:07.635Z,66152.84
2023-06-03T10:05:35.848Z,63838.31
2023-06-03T10:08:05.181Z,62039.22
2023-06-03T10:10:34.509Z,59984.28
2023-06-03T10:13:24.752Z,58700.59
2023-06-03T10:15:53.500Z,58957.28
2023-06-03T10:18:41.515Z,54852.38
2023-06-03T10:21:12.988Z,57160.78
2023-06-03T10:23:45.831Z,57930.59
2023-06-03T10:26:13.524Z,58443.91
2023-06-03T10:28:41.793Z,62039.22
2023-06-03T10:31:11.546Z,68211.50
2023-06-03T10:33:42.420Z,71044.19
2023-06-03T10:36:10.710Z,72848.03
2023-06-03T10:38:40.100Z,74394.94
2023-06-03T10:41:13.270Z,75168.66
2023-06-03T10:43:43.032Z,76458.59
2023-06-03T10:46:12.541Z,76716.63
2023-06-03T10:48:43.113Z,77232.75
2023-06-03T10:51:30.498Z,76200.56
2023-06-03T10:54:21.102Z,77490.88
2023-06-03T10:56:51.065Z,78265.28
2023-06-03T10:59:21.833Z,77490.88
2023-06-03T11:02:00.399Z,77232.75
2023-06-03T11:04:36.634Z,77748.97
2023-06-03T11:07:06.052Z,77748.97
2023-06-03T11:09:38.456Z,77232.75
2023-06-03T11:12:11.170Z,76974.69
2023-06-03T11:14:49.666Z,77232.75
2023-06-03T11:17:21.264Z,77748.97
2023-06-03T11:19:51.665Z,77490.88
2023-06-03T11:22:32.821Z,76458.59
2023-06-03T11:25:03.412Z,76974.69
2023-06-03T11:27:33.832Z,76716.63
2023-06-03T11:30:07.313Z,77232.75
2023-06-03T11:32:39.512Z,76716.63
2023-06-03T11:35:09.932Z,76974.69
2023-06-03T11:37:43.016Z,77232.75
2023-06-03T11:40:17.040Z,77490.88
2023-06-03T11:42:50.017Z,77490.88
2023-06-03T11:45:25.811Z,77748.97
2023-06-03T11:48:09.310Z,77232.75
2023-06-03T11:50:57.786Z,77748.97
2023-06-03T11:53:38.179Z,77490.88
2023-06-03T11:56:16.464Z,77490.88
2023-06-03T11:58:54.784Z,77490.88
2023-06-03T12:01:23.318Z,76974.69
2023-06-03T12:04:03.725Z,77232.75
2023-06-03T12:06:40.751Z,84208.25
2023-06-03T12:09:07.905Z,89643.41
2023-06-03T12:11:41.640Z,85760.28
2023-06-03T12:14:09.884Z,88348.56
2023-06-03T12:16:38.400Z,90679.66
2023-06-03T12:19:07.667Z,91457.03
2023-06-03T12:21:37.540Z,92234.59
2023-06-03T12:24:14.512Z,93012.34
2023-06-03T12:26:42.488Z,95346.59
2023-06-03T12:29:12.833Z,95865.50
2023-06-03T12:31:40.371Z,97422.78
2023-06-03T12:34:12.755Z,97422.78
2023-06-03T12:36:47.554Z,98721.03
2023-06-03T12:39:15.431Z,99500.22
2023-06-03T12:41:55.082Z,99240.47
2023-06-03T12:44:23.937Z,100279.59
2023-06-03T12:47:04.533Z,100279.59
2023-06-03T12:49:32.344Z,100799.25
2023-06-03T12:54:48.824Z,102098.78
2023-06-03T12:57:16.582Z,102358.75
2023-06-03T13:00:20.472Z,102878.72
2023-06-03T13:02:55.425Z,103398.78
2023-06-03T13:05:24.119Z,103658.84
2023-06-03T13:07:51.858Z,103658.84
2023-06-03T13:10:19.465Z,104179.03
2023-06-03T13:12:48.482Z,103918.91
2023-06-03T13:15:17.786Z,103918.91
2023-06-03T13:17:48.176Z,104179.03
2023-06-03T13:20:16.952Z,104179.03
2023-06-03T13:22:44.488Z,103658.84
2023-06-03T13:25:11.931Z,104439.13
2023-06-03T13:27:43.104Z,104439.13
2023-06-03T13:30:12.596Z,104959.44
2023-06-03T13:32:43.789Z,105219.59
2023-06-03T13:35:11.591Z,104959.44
2023-06-03T13:37:43.781Z,104959.44
2023-06-03T13:40:11.505Z,104959.44
2023-06-03T13:42:40.820Z,105219.59
2023-06-03T13:45:08.910Z,105219.59
2023-06-03T13:47:39.475Z,105219.59
2023-06-03T13:50:10.870Z,105219.59
2023-06-03T13:52:39.941Z,104959.44
2023-06-03T13:55:07.820Z,104959.44
2023-06-03T13:57:35.013Z,104959.44
2023-06-03T14:00:05.523Z,104699.28
2023-06-03T14:02:32.741Z,104699.28
2023-06-03T14:05:00.298Z,104699.28
2023-06-03T14:07:29.739Z,104439.13
2023-06-03T14:09:59.576Z,104699.28
2023-06-03T14:12:28.046Z,104699.28
2023-06-03T14:14:55.287Z,104959.44
2023-06-03T14:17:24.885Z,105219.59
2023-06-03T14:19:52.480Z,105479.81
2023-06-03T14:22:25.565Z,105479.81
2023-06-03T14:24:53.441Z,105479.81
2023-06-03T14:27:21.021Z,105740.00
2023-06-03T14:29:48.406Z,105740.00
2023-06-03T14:32:18.126Z,106000.25
2023-06-03T14:34:45.595Z,106000.25
2023-06-03T14:37:13.095Z,106000.25
2023-06-03T14:39:40.313Z,106260.50
2023-06-03T14:42:07.713Z,106520.78
2023-06-03T14:44:42.726Z,106520.78
2023-06-03T14:47:17.486Z,107041.38
2023-06-03T14:49:45.143Z,106781.06
2023-06-03T14:52:15.041Z,107041.38
2023-06-03T14:54:42.468Z,107041.38
2023-06-03T14:57:09.646Z,107041.38
2023-06-03T14:59:37.208Z,107041.38
2023-06-03T15:02:04.491Z,107041.38
2023-06-03T15:04:31.778Z,107301.72
2023-06-03T15:06:59.417Z,107301.72
2023-06-03T15:09:27.504Z,107562.06
2023-06-03T15:11:54.936Z,107301.72
2023-06-03T15:14:24.804Z,107562.06
2023-06-03T15:16:52.642Z,107562.06
2023-06-03T15:19:19.978Z,107562.06
2023-06-03T15:21:47.168Z,107822.44
2023-06-03T15:24:14.711Z,107822.44
2023-06-03T15:26:42.911Z,107562.06
2023-06-03T15:29:12.719Z,107822.44
2023-06-03T15:31:40.056Z,107822.44
2023-06-03T15:34:07.262Z,107822.44
2023-06-03T15:36:36.737Z,107562.06
2023-06-03T15:39:04.389Z,107301.72
2023-06-03T15:41:31.625Z,107301.72
2023-06-03T15:43:59.060Z,107301.72
2023-06-03T15:46:28.906Z,107301.72
2023-06-03T15:48:56.412Z,107562.06
2023-06-03T15:51:26.552Z,107562.06
2023-06-03T15:53:56.239Z,107562.06
2023-06-03T15:56:25.633Z,107301.72
2023-06-03T15:58:56.279Z,107562.06
2023-06-03T16:01:26.712Z,107562.06
2023-06-03T16:03:56.594Z,107562.06
2023-06-03T16:06:24.899Z,107822.44
2023-06-03T16:08:54.775Z,108082.81
2023-06-03T16:11:25.030Z,107822.44
2023-06-03T16:13:57.051Z,108082.81
2023-06-03T16:16:24.281Z,108082.81
2023-06-03T16:18:53.001Z,107822.44
2023-06-03T16:21:20.224Z,107822.44
2023-06-03T16:23:47.735Z,108082.81
2023-06-03T16:26:15.660Z,108082.81
2023-06-03T16:28:43.643Z,108343.22
2023-06-03T16:31:11.002Z,108343.22
2023-06-03T16:33:38.398Z,108343.22
2023-06-03T16:36:07.715Z,108603.66
2023-06-03T16:38:38.550Z,108343.22
2023-06-03T16:41:06.087Z,108603.66
2023-06-03T16:43:36.180Z,108343.22
2023-06-03T16:46:07.893Z,108343.22
2023-06-03T16:48:35.517Z,108082.81
2023-06-03T16:51:05.354Z,107822.44
2023-06-03T16:53:35.154Z,107562.06
2023-06-03T16:56:06.824Z,107562.06
2023-06-03T16:58:52.095Z,107301.72
2023-06-03T17:01:26.891Z,107301.72
2023-06-03T17:03:54.368Z,107041.38
2023-06-03T17:06:39.390Z,107041.38
2023-06-03T17:09:29.600Z,107041.38
2023-06-03T17:11:59.243Z,107301.72
2023-06-03T17:14:27.052Z,106781.06
2023-06-03T17:16:54.316Z,106520.78
2023-06-03T17:19:21.802Z,106520.78
2023-06-03T17:21:49.211Z,106260.50
2023-06-03T17:24:18.834Z,106000.25
2023-06-03T17:26:46.259Z,106260.50
2023-06-03T17:29:13.839Z,106260.50
2023-06-03T17:31:46.346Z,106260.50
2023-06-03T17:34:16.282Z,106260.50
2023-06-03T17:36:43.936Z,106000.25
2023-06-03T17:39:13.850Z,105479.81
2023-06-03T17:41:43.556Z,104959.44
2023-06-03T17:44:13.131Z,104959.44
2023-06-03T17:46:45.336Z,104179.03
2023-06-03T17:49:12.770Z,103918.91
2023-06-03T17:51:40.122Z,103918.91
2023-06-03T17:54:07.513Z,103398.78
2023-06-03T17:56:36.083Z,102618.72
2023-06-03T17:59:05.831Z,102358.75
2023-06-03T18:01:47.910Z,101578.91
2023-06-03T18:04:49.106Z,101059.13
2023-06-03T18:07:41.975Z,101319.00
2023-06-03T18:10:19.073Z,101838.84
2023-06-03T18:12:49.196Z,101838.84
2023-06-03T18:15:16.561Z,101578.91
2023-06-03T18:17:48.627Z,101319.00
2023-06-03T18:20:16.486Z,101059.13
2023-06-03T18:22:43.923Z,100279.59
2023-06-03T18:25:14.779Z,99760.00
2023-06-03T18:27:42.312Z,99760.00
2023-06-03T18:30:10.898Z,99500.22
2023-06-03T18:32:38.385Z,99500.22
2023-06-03T18:35:06.417Z,99240.47
2023-06-03T18:37:35.114Z,98461.34
2023-06-03T18:40:02.321Z,98201.69
2023-06-03T18:42:29.783Z,97422.78
2023-06-03T18:44:59.391Z,97163.19
2023-06-03T18:47:28.872Z,96384.53
2023-06-03T18:49:58.501Z,95606.03
2023-06-03T18:52:25.739Z,94568.31
2023-06-03T18:54:57.965Z,94308.94
2023-06-03T18:57:28.291Z,93271.63
2023-06-03T18:59:56.173Z,92493.81
2023-06-03T19:02:23.679Z,91716.22
2023-06-03T19:04:51.098Z,90938.78
2023-06-03T19:07:19.502Z,90679.66
2023-06-03T19:09:46.898Z,89643.41
2023-06-03T19:12:16.421Z,89384.41
2023-06-03T19:14:44.747Z,88866.44
2023-06-03T19:17:18.139Z,88089.66
2023-06-03T19:19:46.272Z,87313.03
2023-06-03T19:22:14.510Z,87313.03
2023-06-03T19:24:41.860Z,87054.19
2023-06-03T19:27:10.432Z,86019.03
2023-06-03T19:29:40.925Z,85760.28
2023-06-03T19:32:08.778Z,85760.28
2023-06-03T19:34:39.185Z,84725.53
2023-06-03T19:37:07.648Z,83949.66
2023-06-03T19:39:39.647Z,83173.97
2023-06-03T19:42:07.526Z,82139.97
2023-06-03T19:44:34.770Z,81364.69
2023-06-03T19:47:04.546Z,80072.94
2023-06-03T19:49:32.007Z,79556.34
2023-06-03T19:51:59.267Z,78007.13
2023-06-03T19:54:26.745Z,73621.41
2023-06-03T19:56:54.102Z,71301.84
2023-06-03T19:59:21.562Z,69241.31
2023-06-03T20:01:48.736Z,67439.34
2023-06-03T20:04:20.584Z,64352.53
2023-06-03T20:06:47.898Z,63324.19
2023-06-03T20:09:19.075Z,61011.59
2023-06-03T20:11:47.349Z,60497.91
2023-06-03T20:14:14.543Z,58957.28
2023-06-03T20:16:43.026Z,56647.66
2023-06-03T20:19:15.680Z,55108.78
2023-06-03T20:21:42.941Z,54852.38
2023-06-03T20:24:10.459Z,54301.56
2023-06-03T20:26:37.733Z,52447.44
2023-06-03T20:29:05.002Z,50768.44
2023-06-03T20:31:32.354Z,49532.22
2023-06-03T20:34:00.366Z,49272.22
2023-06-03T20:36:30.234Z,48342.41
2023-06-03T20:38:57.708Z,48094.53
2023-06-03T20:41:24.979Z,46975.19
2023-06-03T20:43:52.141Z,46327.75
2023-06-03T20:46:22.240Z,45802.28
2023-06-03T20:48:49.550Z,45141.09
2023-06-03T20:51:21.407Z,44132.56
2023-06-03T20:53:51.482Z,43667.31
2023-06-03T20:56:18.644Z,42842.88
2023-06-03T20:58:46.055Z,42731.09
2023-06-03T21:01:13.266Z,42427.72
2023-06-03T21:03:40.782Z,42349.88
2023-06-03T21:06:08.486Z,42395.78
2023-06-03T21:08:35.702Z,42112.41
2023-06-03T21:11:03.327Z,41705.31
2023-06-03T21:13:30.494Z,41326.22
2023-06-03T21:16:00.400Z,41134.69
2023-06-03T21:18:30.230Z,41096.78
2023-06-03T21:20:57.447Z,41070.88
2023-06-03T21:23:25.550Z,41086.81
2023-06-03T21:25:55.299Z,41066.88
2023-06-03T21:28:22.690Z,41021.00
2023-06-03T21:30:52.346Z,40729.75
2023-06-03T21:33:25.861Z,40538.25
2023-06-03T21:35:54.174Z,40578.13
2023-06-03T21:38:21.542Z,40562.19
2023-06-03T21:40:51.374Z,41076.84
2023-06-03T21:43:20.915Z,41326.22
2023-06-03T21:45:48.697Z,41370.13
2023-06-03T21:48:16.111Z,41489.84
2023-06-03T21:50:43.434Z,41615.53
2023-06-03T21:53:13.807Z,41671.41
2023-06-03T21:55:41.144Z,41322.25
2023-06-03T21:58:13.246Z,41222.47
2023-06-03T22:00:41.588Z,41340.19
2023-06-03T22:03:08.811Z,41541.72
2023-06-03T22:05:38.909Z,41631.50
2023-06-03T22:08:06.389Z,41473.88
2023-06-03T22:10:33.702Z,41110.75
2023-06-03T22:13:01.202Z,40787.59
2023-06-03T22:15:28.472Z,40348.75
2023-06-03T22:17:55.919Z,40133.34
2023-06-03T22:20:23.190Z,39854.16
2023-06-03T22:23:02.235Z,39411.44
2023-06-03T22:25:37.693Z,38875.13
2023-06-03T22:28:05.231Z,39610.84
2023-06-03T22:30:35.101Z,38942.91
2023-06-03T22:33:02.365Z,38847.19
2023-06-03T22:35:29.818Z,38839.22
2023-06-03T22:37:57.384Z,38803.34
2023-06-03T22:40:26.986Z,38781.41
2023-06-03T22:42:54.261Z,38893.06
2023-06-03T22:45:21.567Z,38994.72
2023-06-03T22:47:54.059Z,38875.13
2023-06-03T22:50:21.884Z,38887.06
2023-06-03T22:52:49.225Z,38757.50
2023-06-03T22:55:21.722Z,38827.25
2023-06-03T22:57:49.352Z,38855.19
2023-06-03T23:00:17.322Z,38841.22
2023-06-03T23:02:44.580Z,38699.66
2023-06-03T23:05:11.886Z,38641.84
2023-06-03T23:07:39.332Z,38649.84
2023-06-03T23:10:06.941Z,38564.13
2023-06-03T23:12:34.431Z,38510.28
2023-06-03T23:15:02.301Z,38482.38
2023-06-03T23:17:29.632Z,38402.66
2023-06-03T23:19:59.207Z,38344.84
2023-06-03T23:22:26.570Z,38334.88
2023-06-03T23:24:53.912Z,38370.75
2023-06-03T23:27:21.341Z,38404.63
2023-06-03T23:29:48.744Z,38526.25
2023-06-03T23:32:16.142Z,38482.38
2023-06-03T23:34:45.605Z,38370.75
2023-06-03T23:37:12.998Z,38458.47
2023-06-03T23:39:42.303Z,38426.56
2023-06-03T23:42:09.631Z,38412.59
2023-06-03T23:44:37.054Z,38368.75
2023-06-03T23:47:04.324Z,38243.19
2023-06-03T23:49:34.015Z,38227.22
2023-06-03T23:52:01.342Z,38263.09
2023-06-03T23:54:28.547Z,38167.44
2023-06-03T23:56:55.722Z,38091.69
2023-06-03T23:59:23.248Z,38009.97
